CW7773 Weather Reports


Display with metric or nautical units.
time (UTC)temp
F
wind
direction
speed
MPH
gust
MPH
rain 1hr
in
rain 24hr
in
rain mn
in
humidity
%
barometer
mb
20190723102338 66 77 0.0 3.0 0.00 0.00 0.00 74
20190723101330 67 87 0.0 6.0 0.00 0.00 0.00 73
20190723100343 67 98 2.0 7.0 0.00 0.00 0.00 73
20190723095335 66 101 2.0 7.0 0.00 0.00 0.00 75
20190723094348 66 104 2.0 5.0 0.00 0.00 0.00 77
20190723093342 66 117 0.0 2.0 0.00 0.00 0.00 77
20190723092337 66 117 1.0 6.0 0.00 0.00 0.00 76
20190723091332 66 106 2.0 6.0 0.00 0.00 0.00 78
20190723090342 65 84 0.0 2.0 0.00 0.00 0.00 79
20190723085339 65 95 0.0 1.0 0.00 0.00 0.00 79
20190723084331 66 95 0.0 1.0 0.00 0.00 0.00 79
20190723083345 65 95 0.0 0.0 0.00 0.00 0.00 79
20190723082344 66 95 0.0 1.0 0.00 0.00 0.00 79
20190723081337 66 102 0.0 4.0 0.00 0.00 0.00 78
20190723080348 67 110 1.0 5.0 0.00 0.00 0.00 78
20190723075341 67 121 2.0 7.0 0.00 0.00 0.00 78
20190723074331 67 115 4.0 7.0 0.00 0.00 0.00 77 1101.8
20190723073330 67 113 3.0 7.0 0.00 0.00 0.00 77
20190723072343 67 113 4.0 6.0 0.00 0.00 0.00 78
20190723071335 67 113 3.0 8.0 0.00 0.00 0.00 77
20190723070349 67 118 6.0 12.0 0.00 0.00 0.00 78
20190723065343 65 114 4.0 9.0 0.00 0.00 0.00 84
20190723064338 64 101 1.0 4.0 0.00 0.00 0.00 86
20190723063350 63 67 0.0 3.0 0.00 0.00 0.00 87
20190723062337 64 43 0.0 3.0 0.00 0.00 0.00 87
20190723061328 64 43 0.0 2.0 0.00 0.00 0.00 86
20190723060341 64 42 0.0 3.0 0.00 0.00 0.00 86
20190723055338 64 46 2.0 8.0 0.00 0.00 0.00 85
20190723054333 65 68 0.0 0.0 0.00 0.00 0.00 84
20190723053344 65 69 0.0 0.0 0.00 0.00 0.00 84
20190723052339 66 69 0.0 0.0 0.00 0.00 0.00 84
20190723051338 66 68 0.0 0.0 0.00 0.00 0.00 84 1037.3
20190723050347 66 69 0.0 2.0 0.00 0.00 0.00 83
20190723045341 67 63 0.0 1.0 0.00 0.00 0.00 82 -107.2
20190723044333 67 37 0.0 3.0 0.00 0.00 0.00 81 -107.8
20190723043346 67 56 0.0 5.0 0.00 0.00 0.00 80
20190723042345 68 88 0.0 3.0 0.00 0.00 0.00 80
20190723041336 68 74 0.0 2.0 0.00 0.00 0.00 80
20190723040347 68 90 0.0 2.0 0.00 0.00 0.00 80
20190723035340 68 90 0.0 4.0 0.00 0.00 0.00 80
20190723034331 69 97 0.0 2.0 0.00 0.00 0.00 80
20190723033346 69 98 0.0 2.0 0.00 0.00 0.00 79
20190723032341 70 98 0.0 2.0 0.00 0.00 0.00 78
20190723031335 70 99 0.0 3.0 0.00 0.00 0.00 78 1053.9
20190723030346 71 100 0.0 2.0 0.00 0.00 0.00 77
20190723025339 71 98 0.0 1.0 0.00 0.00 0.00 77 1011.2
20190723024335 72 98 0.0 2.0 0.00 0.00 0.00 76
20190723023347 73 98 1.0 2.0 0.00 0.00 0.00 75
20190723022341 74 102 0.0 2.0 0.00 0.00 0.00 75 -104.6
20190723021332 74 103 0.0 3.0 0.00 0.00 0.00 73
20190723020341 75 103 1.0 3.0 0.00 0.00 0.00 72
20190723015337 76 107 2.0 4.0 0.00 0.00 0.00 70
20190723014332 77 105 3.0 8.0 0.00 0.00 0.00 67
20190723013345 78 108 3.0 8.0 0.00 0.00 0.00 65
20190723012337 78 105 4.0 8.0 0.00 0.00 0.00 64
20190723011346 79 105 3.0 8.0 0.00 0.00 0.00 64 1107.1
20190723010344 80 115 4.0 10.0 0.00 0.00 0.00 62
20190723005340 80 123 5.0 11.0 0.00 0.00 0.00 60
20190723004331 80 132 6.0 10.0 0.00 0.00 0.00 61
20190723003344 80 118 3.0 10.0 0.00 0.00 0.00 63
20190723002337 80 138 8.0 11.0 0.00 0.00 0.00 58
20190723001333 81 132 8.0 11.0 0.00 0.00 0.00 59
20190723000344 81 137 5.0 13.0 0.00 0.00 0.00 58 -107.8
20190722235337 81 110 7.0 12.0 0.00 0.00 0.00 60 -107.5
20190722234327 81 132 10.0 14.0 0.00 0.00 0.00 58
20190722233343 81 125 10.0 16.0 0.00 0.00 0.00 57 -108.0
20190722232340 81 139 6.0 14.0 0.00 0.00 0.00 57
20190722231331 81 118 3.0 11.0 0.00 0.00 0.00 58 -105.7
20190722230342 81 113 6.0 13.0 0.00 0.00 0.00 55
20190722225334 81 117 8.0 14.0 0.00 0.00 0.00 56
20190722224345 81 123 6.0 11.0 0.00 0.00 0.00 56
20190722223343 81 138 9.0 13.0 0.00 0.00 0.00 54 900.7
20190722222337 81 136 7.0 12.0 0.00 0.00 0.00 58
20190722221349 81 141 9.0 13.0 0.00 0.00 0.00 52 849.0
20190722220339 81 130 9.0 16.0 0.00 0.00 0.00 54
20190722215338 81 98 8.0 13.0 0.00 0.00 0.00 52
20190722214349 81 107 5.0 11.0 0.00 0.00 0.00 52 1084.0
20190722213342 81 130 6.0 14.0 0.00 0.00 0.00 50
20190722212335 81 130 7.0 14.0 0.00 0.00 0.00 53
20190722211345 81 122 7.0 10.0 0.00 0.00 0.00 52 963.9
20190722210342 81 142 6.0 10.0 0.00 0.00 0.00 51
20190722205334 80 140 8.0 14.0 0.00 0.00 0.00 53
20190722204347 80 156 8.0 12.0 0.00 0.00 0.00 51
20190722203339 80 153 9.0 15.0 0.00 0.00 0.00 52
20190722202335 80 169 9.0 17.0 0.00 0.00 0.00 52
20190722201332 79 133 7.0 12.0 0.00 0.00 0.00 54
20190722200343 80 117 7.0 12.0 0.00 0.00 0.00 56
20190722195334 79 113 7.0 15.0 0.00 0.00 0.00 56
20190722194347 79 141 11.0 15.0 0.00 0.00 0.00 55
20190722193340 79 121 8.0 17.0 0.00 0.00 0.00 53
20190722192337 79 136 6.0 14.0 0.00 0.00 0.00 57
20190722191348 79 155 9.0 18.0 0.00 0.00 0.00 56
20190722190337 79 141 8.0 20.0 0.00 0.00 0.00 56
20190722185350 78 134 10.0 16.0 0.00 0.00 0.00 55
20190722184343 78 150 7.0 15.0 0.00 0.00 0.00 55
20190722183339 78 144 10.0 17.0 0.00 0.00 0.00 56
20190722182347 78 149 8.0 14.0 0.00 0.00 0.00 58
20190722181341 78 143 9.0 15.0 0.00 0.04 0.00 57
20190722180332 77 140 8.0 15.0 0.00 0.04 0.00 55 1101.9
20190722175346 78 128 9.0 15.0 0.00 0.04 0.00 54
20190722174341 77 146 6.0 14.0 0.00 0.04 0.00 59
20190722173336 77 123 9.0 15.0 0.00 0.04 0.00 57
20190722172502 77 125 8.0 13.0 0.00 0.04 0.00 58
20190722171340 76 142 9.0 18.0 0.00 0.04 0.00 59
20190722170349 76 132 8.0 15.0 0.00 0.04 0.00 59
20190722165347 76 132 9.0 13.0 0.00 0.04 0.00 63
20190722164338 75 161 6.0 11.0 0.00 0.04 0.00 65
20190722163330 75 130 9.0 14.0 0.00 0.04 0.00 63
20190722162344 74 140 9.0 14.0 0.00 0.04 0.00 63
20190722161335 74 136 9.0 13.0 0.00 0.04 0.00 65
20190722160347 73 149 11.0 14.0 0.00 0.04 0.00 65
20190722155340 73 128 7.0 12.0 0.00 0.04 0.00 71
20190722154334 72 144 7.0 12.0 0.00 0.04 0.00 71
20190722153346 71 150 9.0 15.0 0.00 0.04 0.00 71
20190722152341 71 139 9.0 13.0 0.00 0.04 0.00 71
20190722151339 71 144 8.0 13.0 0.00 0.04 0.00 72
20190722150331 70 151 5.0 8.0 0.00 0.04 0.00 75
20190722145344 69 121 2.0 8.0 0.00 0.04 0.00 76
20190722144336 69 110 2.0 7.0 0.00 0.04 0.00 76
20190722143333 68 141 4.0 9.0 0.00 0.04 0.00 77
20190722142346 68 133 3.0 7.0 0.00 0.04 0.00 78
20190722141340 67 146 3.0 8.0 0.00 0.04 0.00 78
20190722140333 66 165 3.0 7.0 0.00 0.04 0.00 80
20190722135347 67 144 2.0 6.0 0.00 0.04 0.00 78
20190722134343 66 103 0.0 0.0 0.00 0.04 0.00 80
20190722133335 65 104 0.0 2.0 0.00 0.04 0.00 80
20190722132331 64 104 0.0 2.0 0.00 0.04 0.00 82
20190722131344 63 109 0.0 1.0 0.00 0.04 0.00 83
20190722130335 62 109 0.0 3.0 0.00 0.04 0.00 83
20190722125333 61 108 0.0 0.0 0.00 0.04 0.00 84
20190722124345 60 108 0.0 0.0 0.00 0.04 0.00 85
20190722123339 60 108 0.0 3.0 0.00 0.04 0.00 87
20190722122334 58 61 0.0 0.0 0.00 0.04 0.00 89
20190722121346 58 60 0.0 0.0 0.00 0.04 0.00 89
20190722120341 57 60 0.0 0.0 0.00 0.04 0.00 89
20190722115335 57 61 0.0 0.0 0.00 0.04 0.00 89
20190722114348 57 61 0.0 0.0 0.00 0.04 0.00 88
20190722113340 57 60 0.0 0.0 0.00 0.04 0.00 88
20190722112335 58 152 0.0 0.0 0.00 0.04 0.00 88
20190722111330 58 153 0.0 0.0 0.00 0.04 0.00 88
20190722110344 58 152 0.0 0.0 0.00 0.04 0.00 88
20190722105339 58 153 0.0 0.0 0.00 0.04 0.00 88
20190722104330 58 153 0.0 0.0 0.00 0.04 0.00 89
20190722103343 58 153 0.0 0.0 0.00 0.04 0.00 89